sensor_id;sensor_type;location;lat;lon;timestamp;temperature;humidity
78708;SHT31;68037;51.978;5.650;2023-08-08T00:00:23;17.6;68.7
78708;SHT31;68037;51.978;5.650;2023-08-08T00:02:52;17.6;68.9
78708;SHT31;68037;51.978;5.650;2023-08-08T00:05:22;17.6;69.1
78708;SHT31;68037;51.978;5.650;2023-08-08T00:07:51;17.6;69.5
78708;SHT31;68037;51.978;5.650;2023-08-08T00:10:21;17.5;69.6
78708;SHT31;68037;51.978;5.650;2023-08-08T00:12:51;17.5;69.9
78708;SHT31;68037;51.978;5.650;2023-08-08T00:15:20;17.5;70.1
78708;SHT31;68037;51.978;5.650;2023-08-08T00:17:52;17.5;69.9
78708;SHT31;68037;51.978;5.650;2023-08-08T00:20:21;17.5;69.9
78708;SHT31;68037;51.978;5.650;2023-08-08T00:22:51;17.5;70.1
78708;SHT31;68037;51.978;5.650;2023-08-08T00:25:20;17.6;70.1
78708;SHT31;68037;51.978;5.650;2023-08-08T00:27:50;17.6;69.9
78708;SHT31;68037;51.978;5.650;2023-08-08T00:30:19;17.6;69.9
78708;SHT31;68037;51.978;5.650;2023-08-08T00:32:49;17.6;69.9
78708;SHT31;68037;51.978;5.650;2023-08-08T00:35:19;17.5;70.2
78708;SHT31;68037;51.978;5.650;2023-08-08T00:37:48;17.5;70.4
78708;SHT31;68037;51.978;5.650;2023-08-08T00:40:18;17.5;70.4
78708;SHT31;68037;51.978;5.650;2023-08-08T00:42:48;17.6;70.6
78708;SHT31;68037;51.978;5.650;2023-08-08T00:45:17;17.6;70.6
78708;SHT31;68037;51.978;5.650;2023-08-08T00:47:47;17.6;70.4
78708;SHT31;68037;51.978;5.650;2023-08-08T00:50:19;17.6;70.3
78708;SHT31;68037;51.978;5.650;2023-08-08T00:52:50;17.6;70.3
78708;SHT31;68037;51.978;5.650;2023-08-08T00:55:21;17.6;70.6
78708;SHT31;68037;51.978;5.650;2023-08-08T00:57:50;17.6;71.2
78708;SHT31;68037;51.978;5.650;2023-08-08T01:00:20;17.6;71.8
78708;SHT31;68037;51.978;5.650;2023-08-08T01:02:50;17.5;72.4
78708;SHT31;68037;51.978;5.650;2023-08-08T01:05:21;17.5;72.4
78708;SHT31;68037;51.978;5.650;2023-08-08T01:07:55;17.5;72.5
78708;SHT31;68037;51.978;5.650;2023-08-08T01:10:30;17.5;72.6
78708;SHT31;68037;51.978;5.650;2023-08-08T01:13:09;17.4;72.9
78708;SHT31;68037;51.978;5.650;2023-08-08T01:15:40;17.4;73.0
78708;SHT31;68037;51.978;5.650;2023-08-08T01:18:11;17.4;73.0
78708;SHT31;68037;51.978;5.650;2023-08-08T01:20:44;17.4;73.4
78708;SHT31;68037;51.978;5.650;2023-08-08T01:23:19;17.4;73.0
78708;SHT31;68037;51.978;5.650;2023-08-08T01:25:51;17.4;73.1
78708;SHT31;68037;51.978;5.650;2023-08-08T01:28:23;17.4;72.6
78708;SHT31;68037;51.978;5.650;2023-08-08T01:30:56;17.4;72.7
78708;SHT31;68037;51.978;5.650;2023-08-08T01:33:26;17.4;72.6
78708;SHT31;68037;51.978;5.650;2023-08-08T01:36:00;17.4;72.9
78708;SHT31;68037;51.978;5.650;2023-08-08T01:38:36;17.4;73.1
78708;SHT31;68037;51.978;5.650;2023-08-08T01:41:07;17.4;72.9
78708;SHT31;68037;51.978;5.650;2023-08-08T01:43:39;17.4;72.8
78708;SHT31;68037;51.978;5.650;2023-08-08T01:46:09;17.4;73.1
78708;SHT31;68037;51.978;5.650;2023-08-08T01:48:39;17.4;73.0
78708;SHT31;68037;51.978;5.650;2023-08-08T01:51:09;17.3;72.8
78708;SHT31;68037;51.978;5.650;2023-08-08T01:53:38;17.3;72.9
78708;SHT31;68037;51.978;5.650;2023-08-08T01:56:08;17.3;72.8
78708;SHT31;68037;51.978;5.650;2023-08-08T01:58:37;17.3;73.0
78708;SHT31;68037;51.978;5.650;2023-08-08T02:01:07;17.3;73.0
78708;SHT31;68037;51.978;5.650;2023-08-08T02:03:38;17.3;73.1
78708;SHT31;68037;51.978;5.650;2023-08-08T02:06:08;17.3;73.3
78708;SHT31;68037;51.978;5.650;2023-08-08T02:08:37;17.3;73.3
78708;SHT31;68037;51.978;5.650;2023-08-08T02:11:08;17.3;73.2
78708;SHT31;68037;51.978;5.650;2023-08-08T02:13:38;17.3;73.3
78708;SHT31;68037;51.978;5.650;2023-08-08T02:16:07;17.3;72.8
78708;SHT31;68037;51.978;5.650;2023-08-08T02:18:37;17.3;72.9
78708;SHT31;68037;51.978;5.650;2023-08-08T02:21:08;17.3;72.8
78708;SHT31;68037;51.978;5.650;2023-08-08T02:23:38;17.2;73.0
78708;SHT31;68037;51.978;5.650;2023-08-08T02:26:10;17.2;72.7
78708;SHT31;68037;51.978;5.650;2023-08-08T02:28:40;17.2;72.8
78708;SHT31;68037;51.978;5.650;2023-08-08T02:31:10;17.2;72.3
78708;SHT31;68037;51.978;5.650;2023-08-08T02:33:42;17.2;72.5
78708;SHT31;68037;51.978;5.650;2023-08-08T02:36:11;17.2;72.3
78708;SHT31;68037;51.978;5.650;2023-08-08T02:38:41;17.2;72.2
78708;SHT31;68037;51.978;5.650;2023-08-08T02:41:10;17.2;72.1
78708;SHT31;68037;51.978;5.650;2023-08-08T02:43:40;17.2;72.0
78708;SHT31;68037;51.978;5.650;2023-08-08T02:46:09;17.2;72.1
78708;SHT31;68037;51.978;5.650;2023-08-08T02:48:39;17.2;72.3
78708;SHT31;68037;51.978;5.650;2023-08-08T02:51:10;17.2;72.5
78708;SHT31;68037;51.978;5.650;2023-08-08T02:53:39;17.2;72.5
78708;SHT31;68037;51.978;5.650;2023-08-08T02:56:09;17.2;72.5
78708;SHT31;68037;51.978;5.650;2023-08-08T02:58:38;17.2;72.5
78708;SHT31;68037;51.978;5.650;2023-08-08T03:01:08;17.2;72.7
78708;SHT31;68037;51.978;5.650;2023-08-08T03:03:40;17.1;73.1
78708;SHT31;68037;51.978;5.650;2023-08-08T03:06:12;17.1;73.5
78708;SHT31;68037;51.978;5.650;2023-08-08T03:08:41;17.1;73.6
78708;SHT31;68037;51.978;5.650;2023-08-08T03:11:11;17.1;73.8
78708;SHT31;68037;51.978;5.650;2023-08-08T03:13:40;17.1;74.2
78708;SHT31;68037;51.978;5.650;2023-08-08T03:16:10;17.0;74.4
78708;SHT31;68037;51.978;5.650;2023-08-08T03:18:40;17.0;74.6
78708;SHT31;68037;51.978;5.650;2023-08-08T03:21:10;17.0;74.7
78708;SHT31;68037;51.978;5.650;2023-08-08T03:23:39;17.0;74.8
78708;SHT31;68037;51.978;5.650;2023-08-08T03:26:09;17.0;74.8
78708;SHT31;68037;51.978;5.650;2023-08-08T03:28:38;17.0;74.8
78708;SHT31;68037;51.978;5.650;2023-08-08T03:31:08;17.0;74.9
78708;SHT31;68037;51.978;5.650;2023-08-08T03:33:39;17.0;74.9
78708;SHT31;68037;51.978;5.650;2023-08-08T03:36:10;17.0;75.0
78708;SHT31;68037;51.978;5.650;2023-08-08T03:38:41;17.0;75.0
78708;SHT31;68037;51.978;5.650;2023-08-08T03:41:13;16.9;75.0
78708;SHT31;68037;51.978;5.650;2023-08-08T03:43:45;16.9;74.9
78708;SHT31;68037;51.978;5.650;2023-08-08T03:46:14;16.9;74.9
78708;SHT31;68037;51.978;5.650;2023-08-08T03:48:44;16.9;74.9
78708;SHT31;68037;51.978;5.650;2023-08-08T03:51:13;16.9;74.9
78708;SHT31;68037;51.978;5.650;2023-08-08T03:53:43;16.9;75.0
78708;SHT31;68037;51.978;5.650;2023-08-08T03:56:12;16.9;74.9
78708;SHT31;68037;51.978;5.650;2023-08-08T03:58:41;16.9;75.1
78708;SHT31;68037;51.978;5.650;2023-08-08T04:01:11;16.8;75.0
78708;SHT31;68037;51.978;5.650;2023-08-08T04:03:41;16.8;75.1
78708;SHT31;68037;51.978;5.650;2023-08-08T04:06:10;16.8;75.2
78708;SHT31;68037;51.978;5.650;2023-08-08T04:08:40;16.8;75.3
78708;SHT31;68037;51.978;5.650;2023-08-08T04:11:09;16.8;75.3
78708;SHT31;68037;51.978;5.650;2023-08-08T04:13:38;16.8;75.3
78708;SHT31;68037;51.978;5.650;2023-08-08T04:16:08;16.8;75.3
78708;SHT31;68037;51.978;5.650;2023-08-08T04:18:38;16.8;75.5
78708;SHT31;68037;51.978;5.650;2023-08-08T04:21:07;16.8;75.5
78708;SHT31;68037;51.978;5.650;2023-08-08T04:23:37;16.8;75.6
78708;SHT31;68037;51.978;5.650;2023-08-08T04:26:06;16.8;75.6
78708;SHT31;68037;51.978;5.650;2023-08-08T04:28:36;16.8;75.8
78708;SHT31;68037;51.978;5.650;2023-08-08T04:31:05;16.8;75.9
78708;SHT31;68037;51.978;5.650;2023-08-08T04:33:35;16.8;76.0
78708;SHT31;68037;51.978;5.650;2023-08-08T04:36:05;16.8;76.1
78708;SHT31;68037;51.978;5.650;2023-08-08T04:38:34;16.8;76.3
78708;SHT31;68037;51.978;5.650;2023-08-08T04:41:04;16.8;76.2
78708;SHT31;68037;51.978;5.650;2023-08-08T04:43:33;16.8;76.4
78708;SHT31;68037;51.978;5.650;2023-08-08T04:46:03;16.8;76.4
78708;SHT31;68037;51.978;5.650;2023-08-08T04:48:32;16.8;76.4
78708;SHT31;68037;51.978;5.650;2023-08-08T04:51:02;16.8;76.4
78708;SHT31;68037;51.978;5.650;2023-08-08T04:53:31;16.8;76.5
78708;SHT31;68037;51.978;5.650;2023-08-08T04:56:01;16.8;76.4
78708;SHT31;68037;51.978;5.650;2023-08-08T04:58:30;16.8;76.4
78708;SHT31;68037;51.978;5.650;2023-08-08T05:01:00;16.8;76.2
78708;SHT31;68037;51.978;5.650;2023-08-08T05:03:30;16.7;76.3
78708;SHT31;68037;51.978;5.650;2023-08-08T05:06:02;16.7;76.2
78708;SHT31;68037;51.978;5.650;2023-08-08T05:08:31;16.7;76.2
78708;SHT31;68037;51.978;5.650;2023-08-08T05:11:01;16.7;76.3
78708;SHT31;68037;51.978;5.650;2023-08-08T05:13:30;16.8;76.3
78708;SHT31;68037;51.978;5.650;2023-08-08T05:16:00;16.8;76.5
78708;SHT31;68037;51.978;5.650;2023-08-08T05:18:29;16.8;76.4
78708;SHT31;68037;51.978;5.650;2023-08-08T05:21:00;16.8;76.6
78708;SHT31;68037;51.978;5.650;2023-08-08T05:23:32;16.8;76.5
78708;SHT31;68037;51.978;5.650;2023-08-08T05:26:03;16.9;76.4
78708;SHT31;68037;51.978;5.650;2023-08-08T05:28:32;16.9;76.3
78708;SHT31;68037;51.978;5.650;2023-08-08T05:31:02;16.9;76.2
78708;SHT31;68037;51.978;5.650;2023-08-08T05:33:32;17.0;76.2
78708;SHT31;68037;51.978;5.650;2023-08-08T05:36:01;17.0;75.9
78708;SHT31;68037;51.978;5.650;2023-08-08T05:38:31;17.0;75.5
78708;SHT31;68037;51.978;5.650;2023-08-08T05:41:01;17.0;75.7
78708;SHT31;68037;51.978;5.650;2023-08-08T05:43:30;17.0;75.6
78708;SHT31;68037;51.978;5.650;2023-08-08T05:46:00;17.1;75.8
78708;SHT31;68037;51.978;5.650;2023-08-08T05:48:29;17.1;75.4
78708;SHT31;68037;51.978;5.650;2023-08-08T05:50:59;17.1;75.5
78708;SHT31;68037;51.978;5.650;2023-08-08T05:53:30;17.1;75.1
78708;SHT31;68037;51.978;5.650;2023-08-08T05:55:59;17.2;74.8
78708;SHT31;68037;51.978;5.650;2023-08-08T05:58:29;17.2;74.3
78708;SHT31;68037;51.978;5.650;2023-08-08T06:00:59;17.2;74.5
78708;SHT31;68037;51.978;5.650;2023-08-08T06:03:30;17.2;73.9
78708;SHT31;68037;51.978;5.650;2023-08-08T06:06:00;17.2;73.8
78708;SHT31;68037;51.978;5.650;2023-08-08T06:08:29;17.2;74.2
78708;SHT31;68037;51.978;5.650;2023-08-08T06:10:59;17.2;73.4
78708;SHT31;68037;51.978;5.650;2023-08-08T06:13:31;17.3;73.7
78708;SHT31;68037;51.978;5.650;2023-08-08T06:16:00;17.3;73.1
78708;SHT31;68037;51.978;5.650;2023-08-08T06:18:34;17.3;73.2
78708;SHT31;68037;51.978;5.650;2023-08-08T06:21:03;17.4;73.1
78708;SHT31;68037;51.978;5.650;2023-08-08T06:23:33;17.4;72.2
78708;SHT31;68037;51.978;5.650;2023-08-08T06:26:02;17.4;72.1
78708;SHT31;68037;51.978;5.650;2023-08-08T06:28:33;17.5;70.9
78708;SHT31;68037;51.978;5.650;2023-08-08T06:31:03;17.5;71.0
78708;SHT31;68037;51.978;5.650;2023-08-08T06:33:32;17.5;71.3
78708;SHT31;68037;51.978;5.650;2023-08-08T06:36:02;17.5;71.4
78708;SHT31;68037;51.978;5.650;2023-08-08T06:38:32;17.6;70.6
78708;SHT31;68037;51.978;5.650;2023-08-08T06:41:02;17.6;70.0
78708;SHT31;68037;51.978;5.650;2023-08-08T06:43:34;17.6;69.4
78708;SHT31;68037;51.978;5.650;2023-08-08T06:46:03;17.6;68.3
78708;SHT31;68037;51.978;5.650;2023-08-08T06:48:33;17.7;68.6
78708;SHT31;68037;51.978;5.650;2023-08-08T06:51:02;17.7;68.1
78708;SHT31;68037;51.978;5.650;2023-08-08T06:53:32;17.7;68.2
78708;SHT31;68037;51.978;5.650;2023-08-08T06:56:02;17.8;68.3
78708;SHT31;68037;51.978;5.650;2023-08-08T06:58:31;17.8;68.2
78708;SHT31;68037;51.978;5.650;2023-08-08T07:01:02;17.9;66.8
78708;SHT31;68037;51.978;5.650;2023-08-08T07:03:32;17.9;66.9
78708;SHT31;68037;51.978;5.650;2023-08-08T07:06:03;18.0;67.3
78708;SHT31;68037;51.978;5.650;2023-08-08T07:08:35;18.0;66.8
78708;SHT31;68037;51.978;5.650;2023-08-08T07:11:06;18.1;66.1
78708;SHT31;68037;51.978;5.650;2023-08-08T07:13:36;18.1;65.4
78708;SHT31;68037;51.978;5.650;2023-08-08T07:16:05;18.1;65.0
78708;SHT31;68037;51.978;5.650;2023-08-08T07:18:35;18.2;63.7
78708;SHT31;68037;51.978;5.650;2023-08-08T07:21:05;18.2;64.2
78708;SHT31;68037;51.978;5.650;2023-08-08T07:23:35;18.3;63.9
78708;SHT31;68037;51.978;5.650;2023-08-08T07:26:04;18.3;64.1
78708;SHT31;68037;51.978;5.650;2023-08-08T07:28:34;18.4;63.9
78708;SHT31;68037;51.978;5.650;2023-08-08T07:31:04;18.4;63.0
78708;SHT31;68037;51.978;5.650;2023-08-08T07:33:33;18.5;61.8
78708;SHT31;68037;51.978;5.650;2023-08-08T07:36:04;18.5;60.9
78708;SHT31;68037;51.978;5.650;2023-08-08T07:38:33;18.5;61.5
78708;SHT31;68037;51.978;5.650;2023-08-08T07:41:04;18.6;60.8
78708;SHT31;68037;51.978;5.650;2023-08-08T07:43:33;18.6;61.6
78708;SHT31;68037;51.978;5.650;2023-08-08T07:46:03;18.7;61.0
78708;SHT31;68037;51.978;5.650;2023-08-08T07:48:32;18.7;60.3
78708;SHT31;68037;51.978;5.650;2023-08-08T07:51:02;18.8;61.1
78708;SHT31;68037;51.978;5.650;2023-08-08T07:53:32;18.8;60.3
78708;SHT31;68037;51.978;5.650;2023-08-08T07:56:02;18.9;59.7
78708;SHT31;68037;51.978;5.650;2023-08-08T07:58:32;18.9;59.4
78708;SHT31;68037;51.978;5.650;2023-08-08T08:01:01;19.0;58.2
78708;SHT31;68037;51.978;5.650;2023-08-08T08:03:32;19.0;58.7
78708;SHT31;68037;51.978;5.650;2023-08-08T08:06:02;19.1;59.5
78708;SHT31;68037;51.978;5.650;2023-08-08T08:08:32;19.1;58.2
78708;SHT31;68037;51.978;5.650;2023-08-08T08:11:03;19.2;58.7
78708;SHT31;68037;51.978;5.650;2023-08-08T08:13:32;19.2;58.3
78708;SHT31;68037;51.978;5.650;2023-08-08T08:16:02;19.3;58.8
78708;SHT31;68037;51.978;5.650;2023-08-08T08:18:31;19.3;56.8
78708;SHT31;68037;51.978;5.650;2023-08-08T08:21:02;19.4;57.6
78708;SHT31;68037;51.978;5.650;2023-08-08T08:23:32;19.4;58.6
78708;SHT31;68037;51.978;5.650;2023-08-08T08:26:03;19.4;56.9
78708;SHT31;68037;51.978;5.650;2023-08-08T08:28:32;19.5;56.0
78708;SHT31;68037;51.978;5.650;2023-08-08T08:31:05;19.5;56.4
78708;SHT31;68037;51.978;5.650;2023-08-08T08:33:35;19.6;57.7
78708;SHT31;68037;51.978;5.650;2023-08-08T08:36:05;19.6;57.0
78708;SHT31;68037;51.978;5.650;2023-08-08T08:38:34;19.7;55.1
78708;SHT31;68037;51.978;5.650;2023-08-08T08:41:05;19.7;56.2
78708;SHT31;68037;51.978;5.650;2023-08-08T08:43:35;19.7;54.8
78708;SHT31;68037;51.978;5.650;2023-08-08T08:46:05;19.8;54.7
78708;SHT31;68037;51.978;5.650;2023-08-08T08:48:36;19.8;54.8
78708;SHT31;68037;51.978;5.650;2023-08-08T08:51:06;19.8;54.3
78708;SHT31;68037;51.978;5.650;2023-08-08T08:53:35;19.8;53.4
78708;SHT31;68037;51.978;5.650;2023-08-08T08:56:07;19.8;53.8
78708;SHT31;68037;51.978;5.650;2023-08-08T08:58:38;19.9;53.8
78708;SHT31;68037;51.978;5.650;2023-08-08T09:01:10;19.9;54.9
78708;SHT31;68037;51.978;5.650;2023-08-08T09:03:43;20.0;53.6
78708;SHT31;68037;51.978;5.650;2023-08-08T09:06:16;20.0;53.8
78708;SHT31;68037;51.978;5.650;2023-08-08T09:08:48;20.1;52.5
78708;SHT31;68037;51.978;5.650;2023-08-08T09:11:17;20.1;52.2
78708;SHT31;68037;51.978;5.650;2023-08-08T09:13:47;20.1;52.4
78708;SHT31;68037;51.978;5.650;2023-08-08T09:16:16;20.2;52.8
78708;SHT31;68037;51.978;5.650;2023-08-08T09:18:46;20.2;52.5
78708;SHT31;68037;51.978;5.650;2023-08-08T09:21:16;20.3;51.5
78708;SHT31;68037;51.978;5.650;2023-08-08T09:23:47;20.3;51.3
78708;SHT31;68037;51.978;5.650;2023-08-08T09:26:17;20.3;50.9
78708;SHT31;68037;51.978;5.650;2023-08-08T09:28:46;20.4;50.5
78708;SHT31;68037;51.978;5.650;2023-08-08T09:31:16;20.4;50.8
78708;SHT31;68037;51.978;5.650;2023-08-08T09:33:46;20.4;51.0
78708;SHT31;68037;51.978;5.650;2023-08-08T09:36:18;20.4;51.2
78708;SHT31;68037;51.978;5.650;2023-08-08T09:38:48;20.4;50.0
78708;SHT31;68037;51.978;5.650;2023-08-08T09:41:18;20.5;50.7
78708;SHT31;68037;51.978;5.650;2023-08-08T09:43:50;20.5;49.9
78708;SHT31;68037;51.978;5.650;2023-08-08T09:46:21;20.6;50.4
78708;SHT31;68037;51.978;5.650;2023-08-08T09:48:53;20.6;50.2
78708;SHT31;68037;51.978;5.650;2023-08-08T09:51:27;20.7;50.3
78708;SHT31;68037;51.978;5.650;2023-08-08T09:54:00;20.8;50.4
78708;SHT31;68037;51.978;5.650;2023-08-08T09:56:32;20.8;50.0
78708;SHT31;68037;51.978;5.650;2023-08-08T09:59:04;20.9;49.6
78708;SHT31;68037;51.978;5.650;2023-08-08T10:01:34;21.0;48.2
78708;SHT31;68037;51.978;5.650;2023-08-08T10:04:08;21.0;47.5
78708;SHT31;68037;51.978;5.650;2023-08-08T10:06:37;21.0;47.4
78708;SHT31;68037;51.978;5.650;2023-08-08T10:09:07;21.0;49.2
78708;SHT31;68037;51.978;5.650;2023-08-08T10:11:37;21.0;49.2
78708;SHT31;68037;51.978;5.650;2023-08-08T10:14:10;21.1;48.8
78708;SHT31;68037;51.978;5.650;2023-08-08T10:16:42;21.1;49.1
78708;SHT31;68037;51.978;5.650;2023-08-08T10:19:14;21.1;48.4
78708;SHT31;68037;51.978;5.650;2023-08-08T10:21:44;21.1;48.7
78708;SHT31;68037;51.978;5.650;2023-08-08T10:24:21;21.1;49.2
78708;SHT31;68037;51.978;5.650;2023-08-08T10:26:55;21.2;49.9
78708;SHT31;68037;51.978;5.650;2023-08-08T10:29:31;21.2;49.5
78708;SHT31;68037;51.978;5.650;2023-08-08T10:32:04;21.2;50.5
78708;SHT31;68037;51.978;5.650;2023-08-08T10:34:41;21.2;50.5
78708;SHT31;68037;51.978;5.650;2023-08-08T10:37:12;21.3;48.7
78708;SHT31;68037;51.978;5.650;2023-08-08T10:39:50;21.3;48.3
78708;SHT31;68037;51.978;5.650;2023-08-08T10:42:23;21.3;49.3
78708;SHT31;68037;51.978;5.650;2023-08-08T10:44:55;21.4;49.4
78708;SHT31;68037;51.978;5.650;2023-08-08T10:47:29;21.4;48.4
78708;SHT31;68037;51.978;5.650;2023-08-08T10:50:07;21.5;49.0
78708;SHT31;68037;51.978;5.650;2023-08-08T10:52:55;21.5;49.8
78708;SHT31;68037;51.978;5.650;2023-08-08T10:55:30;21.5;49.6
78708;SHT31;68037;51.978;5.650;2023-08-08T10:58:05;21.5;48.7
78708;SHT31;68037;51.978;5.650;2023-08-08T11:00:36;21.4;50.1
78708;SHT31;68037;51.978;5.650;2023-08-08T11:03:08;21.5;51.1
78708;SHT31;68037;51.978;5.650;2023-08-08T11:05:38;21.5;48.8
78708;SHT31;68037;51.978;5.650;2023-08-08T11:08:13;21.6;49.9
78708;SHT31;68037;51.978;5.650;2023-08-08T11:10:44;21.7;49.0
78708;SHT31;68037;51.978;5.650;2023-08-08T11:13:13;21.8;47.2
78708;SHT31;68037;51.978;5.650;2023-08-08T11:15:43;21.8;46.1
78708;SHT31;68037;51.978;5.650;2023-08-08T11:18:13;21.8;47.0
78708;SHT31;68037;51.978;5.650;2023-08-08T11:20:44;21.9;46.1
78708;SHT31;68037;51.978;5.650;2023-08-08T11:23:13;21.9;46.3
78708;SHT31;68037;51.978;5.650;2023-08-08T11:25:45;21.9;47.8
78708;SHT31;68037;51.978;5.650;2023-08-08T11:28:15;21.9;47.3
78708;SHT31;68037;51.978;5.650;2023-08-08T11:30:46;21.8;48.1
78708;SHT31;68037;51.978;5.650;2023-08-08T11:33:15;21.8;48.0
78708;SHT31;68037;51.978;5.650;2023-08-08T11:35:46;21.8;48.6
78708;SHT31;68037;51.978;5.650;2023-08-08T11:38:17;21.8;49.4
78708;SHT31;68037;51.978;5.650;2023-08-08T11:40:47;21.9;48.4
78708;SHT31;68037;51.978;5.650;2023-08-08T11:43:20;21.9;49.1
78708;SHT31;68037;51.978;5.650;2023-08-08T11:45:50;21.9;48.2
78708;SHT31;68037;51.978;5.650;2023-08-08T11:48:24;22.0;47.5
78708;SHT31;68037;51.978;5.650;2023-08-08T11:50:54;22.0;47.6
78708;SHT31;68037;51.978;5.650;2023-08-08T11:53:24;22.0;46.4
78708;SHT31;68037;51.978;5.650;2023-08-08T11:55:54;22.1;47.2
78708;SHT31;68037;51.978;5.650;2023-08-08T11:58:26;22.1;48.1
78708;SHT31;68037;51.978;5.650;2023-08-08T12:00:56;22.1;48.0
78708;SHT31;68037;51.978;5.650;2023-08-08T12:03:27;22.1;46.9
78708;SHT31;68037;51.978;5.650;2023-08-08T12:05:56;22.1;47.8
78708;SHT31;68037;51.978;5.650;2023-08-08T12:08:30;22.2;48.2
78708;SHT31;68037;51.978;5.650;2023-08-08T12:11:00;22.2;48.7
78708;SHT31;68037;51.978;5.650;2023-08-08T12:13:31;22.2;47.8
78708;SHT31;68037;51.978;5.650;2023-08-08T12:16:05;22.3;45.9
78708;SHT31;68037;51.978;5.650;2023-08-08T12:18:35;22.3;46.8
78708;SHT31;68037;51.978;5.650;2023-08-08T12:21:06;22.3;46.5
78708;SHT31;68037;51.978;5.650;2023-08-08T12:23:37;22.3;46.5
78708;SHT31;68037;51.978;5.650;2023-08-08T12:26:07;22.3;47.0
78708;SHT31;68037;51.978;5.650;2023-08-08T12:28:37;22.3;46.7
78708;SHT31;68037;51.978;5.650;2023-08-08T12:31:06;22.3;46.1
78708;SHT31;68037;51.978;5.650;2023-08-08T12:33:36;22.3;46.8
78708;SHT31;68037;51.978;5.650;2023-08-08T12:36:06;22.3;47.0
78708;SHT31;68037;51.978;5.650;2023-08-08T12:38:35;22.3;47.6
78708;SHT31;68037;51.978;5.650;2023-08-08T12:41:07;22.4;46.4
78708;SHT31;68037;51.978;5.650;2023-08-08T12:43:38;22.4;46.9
78708;SHT31;68037;51.978;5.650;2023-08-08T12:46:08;22.4;46.7
78708;SHT31;68037;51.978;5.650;2023-08-08T12:48:37;22.4;47.2
78708;SHT31;68037;51.978;5.650;2023-08-08T12:51:07;22.4;47.7
78708;SHT31;68037;51.978;5.650;2023-08-08T12:53:36;22.5;47.1
78708;SHT31;68037;51.978;5.650;2023-08-08T12:56:06;22.5;47.3
78708;SHT31;68037;51.978;5.650;2023-08-08T12:58:35;22.5;47.1
78708;SHT31;68037;51.978;5.650;2023-08-08T13:01:08;22.5;46.8
78708;SHT31;68037;51.978;5.650;2023-08-08T13:03:37;22.5;46.8
78708;SHT31;68037;51.978;5.650;2023-08-08T13:06:07;22.5;47.4
78708;SHT31;68037;51.978;5.650;2023-08-08T13:08:39;22.5;47.5
78708;SHT31;68037;51.978;5.650;2023-08-08T13:11:09;22.5;47.8
78708;SHT31;68037;51.978;5.650;2023-08-08T13:13:39;22.5;45.9
78708;SHT31;68037;51.978;5.650;2023-08-08T13:16:09;22.5;46.5
78708;SHT31;68037;51.978;5.650;2023-08-08T13:18:40;22.5;45.8
78708;SHT31;68037;51.978;5.650;2023-08-08T13:21:09;22.5;46.5
78708;SHT31;68037;51.978;5.650;2023-08-08T13:23:40;22.5;46.6
78708;SHT31;68037;51.978;5.650;2023-08-08T13:26:10;22.5;47.0
78708;SHT31;68037;51.978;5.650;2023-08-08T13:28:39;22.5;47.3
78708;SHT31;68037;51.978;5.650;2023-08-08T13:31:10;22.5;46.4
78708;SHT31;68037;51.978;5.650;2023-08-08T13:33:40;22.5;47.3
78708;SHT31;68037;51.978;5.650;2023-08-08T13:36:09;22.5;47.8
78708;SHT31;68037;51.978;5.650;2023-08-08T13:38:39;22.5;47.5
78708;SHT31;68037;51.978;5.650;2023-08-08T13:41:09;22.5;48.5
78708;SHT31;68037;51.978;5.650;2023-08-08T13:43:38;22.5;48.0
78708;SHT31;68037;51.978;5.650;2023-08-08T13:46:08;22.5;48.2
78708;SHT31;68037;51.978;5.650;2023-08-08T13:48:37;22.5;47.4
78708;SHT31;68037;51.978;5.650;2023-08-08T13:51:07;22.5;47.7
78708;SHT31;68037;51.978;5.650;2023-08-08T13:53:36;22.5;47.3
78708;SHT31;68037;51.978;5.650;2023-08-08T13:56:06;22.5;46.7
78708;SHT31;68037;51.978;5.650;2023-08-08T13:58:38;22.4;47.1
78708;SHT31;68037;51.978;5.650;2023-08-08T14:01:08;22.4;47.5
78708;SHT31;68037;51.978;5.650;2023-08-08T14:03:37;22.4;47.7
78708;SHT31;68037;51.978;5.650;2023-08-08T14:06:07;22.4;47.7
78708;SHT31;68037;51.978;5.650;2023-08-08T14:08:37;22.4;47.5
78708;SHT31;68037;51.978;5.650;2023-08-08T14:11:07;22.3;47.5
78708;SHT31;68037;51.978;5.650;2023-08-08T14:13:37;22.3;48.2
78708;SHT31;68037;51.978;5.650;2023-08-08T14:16:08;22.3;47.9
78708;SHT31;68037;51.978;5.650;2023-08-08T14:18:37;22.3;48.4
78708;SHT31;68037;51.978;5.650;2023-08-08T14:21:07;22.3;47.6
78708;SHT31;68037;51.978;5.650;2023-08-08T14:23:37;22.3;46.7
78708;SHT31;68037;51.978;5.650;2023-08-08T14:26:06;22.3;47.9
78708;SHT31;68037;51.978;5.650;2023-08-08T14:28:36;22.3;48.4
78708;SHT31;68037;51.978;5.650;2023-08-08T14:31:06;22.3;48.9
78708;SHT31;68037;51.978;5.650;2023-08-08T14:33:35;22.4;48.7
78708;SHT31;68037;51.978;5.650;2023-08-08T14:36:05;22.4;48.4
78708;SHT31;68037;51.978;5.650;2023-08-08T14:38:36;22.5;48.3
78708;SHT31;68037;51.978;5.650;2023-08-08T14:41:06;22.6;47.8
78708;SHT31;68037;51.978;5.650;2023-08-08T14:43:36;22.6;47.2
78708;SHT31;68037;51.978;5.650;2023-08-08T14:46:06;22.7;46.6
78708;SHT31;68037;51.978;5.650;2023-08-08T14:48:35;22.7;46.2
78708;SHT31;68037;51.978;5.650;2023-08-08T14:51:05;22.7;46.3
78708;SHT31;68037;51.978;5.650;2023-08-08T14:53:34;22.7;46.1
78708;SHT31;68037;51.978;5.650;2023-08-08T14:56:04;22.8;45.9
78708;SHT31;68037;51.978;5.650;2023-08-08T14:58:34;22.8;46.1
78708;SHT31;68037;51.978;5.650;2023-08-08T15:01:05;22.8;46.5
78708;SHT31;68037;51.978;5.650;2023-08-08T15:03:35;22.8;46.4
78708;SHT31;68037;51.978;5.650;2023-08-08T15:06:06;22.8;45.6
78708;SHT31;68037;51.978;5.650;2023-08-08T15:08:36;22.8;46.5
78708;SHT31;68037;51.978;5.650;2023-08-08T15:11:05;22.8;46.0
78708;SHT31;68037;51.978;5.650;2023-08-08T15:13:35;22.8;46.7
78708;SHT31;68037;51.978;5.650;2023-08-08T15:16:04;22.9;46.5
78708;SHT31;68037;51.978;5.650;2023-08-08T15:18:34;22.9;46.1
78708;SHT31;68037;51.978;5.650;2023-08-08T15:21:03;22.9;45.3
78708;SHT31;68037;51.978;5.650;2023-08-08T15:23:35;23.0;44.8
78708;SHT31;68037;51.978;5.650;2023-08-08T15:26:04;23.0;45.2
78708;SHT31;68037;51.978;5.650;2023-08-08T15:28:34;23.0;46.1
78708;SHT31;68037;51.978;5.650;2023-08-08T15:31:04;23.0;46.0
78708;SHT31;68037;51.978;5.650;2023-08-08T15:33:33;23.0;46.5
78708;SHT31;68037;51.978;5.650;2023-08-08T15:36:04;23.0;47.6
78708;SHT31;68037;51.978;5.650;2023-08-08T15:38:36;23.1;46.5
78708;SHT31;68037;51.978;5.650;2023-08-08T15:41:09;23.1;46.2
78708;SHT31;68037;51.978;5.650;2023-08-08T15:43:40;23.2;45.0
78708;SHT31;68037;51.978;5.650;2023-08-08T15:46:10;23.3;44.9
78708;SHT31;68037;51.978;5.650;2023-08-08T15:48:40;23.3;45.3
78708;SHT31;68037;51.978;5.650;2023-08-08T15:51:10;23.4;45.1
78708;SHT31;68037;51.978;5.650;2023-08-08T15:53:40;23.5;45.3
78708;SHT31;68037;51.978;5.650;2023-08-08T15:56:10;23.7;45.5
78708;SHT31;68037;51.978;5.650;2023-08-08T15:58:40;23.8;45.8
78708;SHT31;68037;51.978;5.650;2023-08-08T16:01:09;23.9;45.5
78708;SHT31;68037;51.978;5.650;2023-08-08T16:03:39;24.0;45.1
78708;SHT31;68037;51.978;5.650;2023-08-08T16:06:08;24.1;45.3
78708;SHT31;68037;51.978;5.650;2023-08-08T16:08:38;24.2;46.1
78708;SHT31;68037;51.978;5.650;2023-08-08T16:11:07;24.5;45.4
78708;SHT31;68037;51.978;5.650;2023-08-08T16:13:37;24.6;44.2
78708;SHT31;68037;51.978;5.650;2023-08-08T16:16:07;24.7;43.5
78708;SHT31;68037;51.978;5.650;2023-08-08T16:18:36;24.7;42.3
78708;SHT31;68037;51.978;5.650;2023-08-08T16:21:06;24.6;42.6